Time;durP1;ratioP1;P1;durP2;ratioP2;P2;SDS_P1;SDS_P2;PMS_P1;PMS_P2;Temp;Humidity;BMP_temperature;BMP_pressure;BME280_temperature;BME280_humidity;BME280_pressure;Samples;Min_cycle;Max_cycle;Signal;HPM_P1;HPM_P2
2022/11/28 00:01:02;;;;;;;;;;;20.60;88.60;;;;;;5096049;28;20326;-49
2022/11/28 00:03:28;;;;;;;;;;;20.60;88.60;;;;;;5096487;28;20369;-48
2022/11/28 00:05:53;;;;;;;;;;;20.60;88.60;;;;;;5096479;28;19908;-51
2022/11/28 00:08:19;;;;;;;;;;;20.60;88.70;;;;;;5096490;28;20297;-48
2022/11/28 00:10:44;;;;;;;;;;;20.60;88.70;;;;;;5095532;28;19916;-52
2022/11/28 00:13:10;;;;;;;;;;;20.50;88.70;;;;;;5095918;28;20333;-47
2022/11/28 00:15:35;;;;;;;;;;;20.60;88.70;;;;;;5096251;28;19996;-46
2022/11/28 00:18:01;;;;;;;;;;;20.60;88.70;;;;;;5096538;28;20343;-50
2022/11/28 00:20:26;;;;;;;;;;;20.60;88.80;;;;;;5095601;28;20467;-48
2022/11/28 00:22:52;;;;;;;;;;;20.50;88.70;;;;;;5078372;28;19911;-49
2022/11/28 00:25:17;;;;;;;;;;;20.50;89.20;;;;;;5096315;28;19911;-47
2022/11/28 00:27:43;;;;;;;;;;;20.60;88.80;;;;;;5096286;28;19904;-49
2022/11/28 00:30:09;;;;;;;;;;;20.60;88.80;;;;;;5096266;28;20327;-51
2022/11/28 00:32:34;;;;;;;;;;;20.50;88.60;;;;;;5095630;28;20378;-48
2022/11/28 00:34:59;;;;;;;;;;;20.50;88.60;;;;;;5094967;28;20346;-47
2022/11/28 00:37:25;;;;;;;;;;;20.60;88.70;;;;;;5096653;28;19931;-52
2022/11/28 00:39:51;;;;;;;;;;;20.50;88.50;;;;;;5095479;28;19904;-47
2022/11/28 00:42:19;;;;;;;;;;;20.50;88.50;;;;;;5095308;28;19908;-50
2022/11/28 00:44:45;;;;;;;;;;;20.60;88.50;;;;;;5096123;28;19912;-46
2022/11/28 00:47:11;;;;;;;;;;;20.60;88.50;;;;;;5096051;28;19904;-47
2022/11/28 00:49:36;;;;;;;;;;;20.60;88.60;;;;;;5095636;28;19908;-48
2022/11/28 00:52:02;;;;;;;;;;;20.50;88.50;;;;;;5095020;28;19946;-50
2022/11/28 00:54:27;;;;;;;;;;;20.50;88.50;;;;;;5095658;28;19911;-48
2022/11/28 00:56:53;;;;;;;;;;;20.50;88.70;;;;;;5095917;28;19908;-50
2022/11/28 00:59:18;;;;;;;;;;;20.50;88.70;;;;;;5095496;28;19983;-48
2022/11/28 01:01:44;;;;;;;;;;;20.50;88.70;;;;;;5076865;28;19912;-52
2022/11/28 01:04:12;;;;;;;;;;;20.50;88.70;;;;;;5095742;28;19908;-51
2022/11/28 01:06:39;;;;;;;;;;;20.50;88.70;;;;;;5095425;28;19905;-50
2022/11/28 01:09:06;;;;;;;;;;;20.50;88.70;;;;;;5095325;28;20299;-47
2022/11/28 01:11:32;;;;;;;;;;;20.50;88.80;;;;;;5095574;28;19916;-50
2022/11/28 01:13:58;;;;;;;;;;;20.50;88.70;;;;;;5095042;28;19908;-51
2022/11/28 01:16:24;;;;;;;;;;;20.50;88.70;;;;;;5095210;28;19912;-49
2022/11/28 01:18:50;;;;;;;;;;;20.50;88.70;;;;;;5095486;28;20018;-47
2022/11/28 01:21:16;;;;;;;;;;;20.50;88.70;;;;;;5095341;28;20358;-50
2022/11/28 01:23:41;;;;;;;;;;;20.50;88.80;;;;;;5076470;28;19908;-50
2022/11/28 01:26:07;;;;;;;;;;;20.50;88.80;;;;;;5077163;28;19904;-53
2022/11/28 01:28:34;;;;;;;;;;;20.50;88.90;;;;;;5095019;28;19904;-47
2022/11/28 01:31:03;;;;;;;;;;;20.50;88.80;;;;;;5077008;28;19926;-50
2022/11/28 01:33:29;;;;;;;;;;;20.50;88.80;;;;;;5094052;28;19999;-49
2022/11/28 01:35:55;;;;;;;;;;;20.50;88.80;;;;;;5094907;28;19939;-47
2022/11/28 01:38:21;;;;;;;;;;;20.50;88.70;;;;;;5093727;28;19908;-48
2022/11/28 01:40:47;;;;;;;;;;;20.50;88.70;;;;;;5076888;28;19949;-49
2022/11/28 01:43:13;;;;;;;;;;;20.50;88.70;;;;;;5094269;28;19911;-50
2022/11/28 01:45:39;;;;;;;;;;;20.40;88.80;;;;;;5094937;28;19938;-48
2022/11/28 01:48:06;;;;;;;;;;;20.50;88.80;;;;;;5094830;28;19908;-52
2022/11/28 01:50:31;;;;;;;;;;;20.50;88.80;;;;;;5094816;28;19912;-49
2022/11/28 01:52:59;;;;;;;;;;;20.50;88.80;;;;;;5093971;28;19968;-47
2022/11/28 01:55:26;;;;;;;;;;;20.50;88.80;;;;;;5094030;28;20377;-51
2022/11/28 01:57:52;;;;;;;;;;;20.50;88.80;;;;;;5094804;28;19911;-50
2022/11/28 02:00:18;;;;;;;;;;;20.50;88.70;;;;;;5094729;28;19904;-49
2022/11/28 02:02:50;;;;;;;;;;;20.50;88.80;;;;;;5094409;28;19908;-50
2022/11/28 02:05:16;;;;;;;;;;;20.50;88.70;;;;;;5093918;28;20327;-53
2022/11/28 02:07:42;;;;;;;;;;;20.50;88.80;;;;;;5094205;28;20358;-51
2022/11/28 02:10:09;;;;;;;;;;;20.50;88.80;;;;;;5094028;28;20369;-47
2022/11/28 02:12:50;;;;;;;;;;;20.50;88.70;;;;;;5094631;28;19908;-49
2022/11/28 02:15:21;;;;;;;;;;;20.50;88.60;;;;;;5093680;28;19996;-48
2022/11/28 02:18:04;;;;;;;;;;;20.50;88.60;;;;;;5094109;28;19904;-48
2022/11/28 02:20:44;;;;;;;;;;;20.50;88.70;;;;;;5094519;28;19986;-48
2022/11/28 02:23:17;;;;;;;;;;;20.50;88.70;;;;;;5094376;28;19904;-51
2022/11/28 02:26:01;;;;;;;;;;;20.50;88.70;;;;;;5093423;28;20001;-51
2022/11/28 02:28:36;;;;;;;;;;;20.50;88.70;;;;;;5094305;28;19904;-53
2022/11/28 02:31:05;;;;;;;;;;;20.50;88.70;;;;;;5093093;28;19911;-48
2022/11/28 02:33:35;;;;;;;;;;;20.50;88.70;;;;;;5093478;28;19912;-51
2022/11/28 02:36:11;;;;;;;;;;;20.50;88.70;;;;;;5094275;28;19904;-48
2022/11/28 02:38:56;;;;;;;;;;;20.50;88.70;;;;;;5094039;28;20347;-48
2022/11/28 02:41:27;;;;;;;;;;;20.50;88.70;;;;;;5075523;28;19912;-47
2022/11/28 02:44:07;;;;;;;;;;;20.50;88.80;;;;;;5094037;28;20266;-47
2022/11/28 02:46:35;;;;;;;;;;;20.50;88.80;;;;;;5093951;28;19911;-49
2022/11/28 02:49:03;;;;;;;;;;;20.50;88.70;;;;;;5094140;28;19908;-47
2022/11/28 02:51:31;;;;;;;;;;;20.50;88.70;;;;;;5092341;28;19912;-51
2022/11/28 02:53:57;;;;;;;;;;;20.50;88.80;;;;;;5093827;28;19915;-48
2022/11/28 02:56:23;;;;;;;;;;;20.50;88.70;;;;;;5093221;28;19908;-48
2022/11/28 02:58:49;;;;;;;;;;;20.50;88.70;;;;;;5094298;28;20015;-49
2022/11/28 03:01:18;;;;;;;;;;;20.50;88.80;;;;;;5093718;28;19918;-50
2022/11/28 03:04:01;;;;;;;;;;;20.50;88.90;;;;;;5095107;28;19904;-48
2022/11/28 03:06:30;;;;;;;;;;;20.50;88.80;;;;;;5098124;28;19904;-52
2022/11/28 03:09:04;;;;;;;;;;;20.40;89.00;;;;;;5097087;28;19912;-48
2022/11/28 03:11:48;;;;;;;;;;;20.40;89.00;;;;;;5097821;28;19919;-47
2022/11/28 03:14:19;;;;;;;;;;;20.40;88.90;;;;;;5097596;28;19927;-49
2022/11/28 03:16:55;;;;;;;;;;;20.40;88.80;;;;;;5097579;28;19999;-48
2022/11/28 03:19:25;;;;;;;;;;;20.50;88.80;;;;;;5097002;28;19908;-51
2022/11/28 03:21:53;;;;;;;;;;;20.50;88.80;;;;;;5079523;28;20002;-49
2022/11/28 03:24:39;;;;;;;;;;;20.50;88.70;;;;;;5097421;28;19904;-49
2022/11/28 03:27:08;;;;;;;;;;;20.50;88.70;;;;;;5097024;28;19918;-48
2022/11/28 03:29:37;;;;;;;;;;;20.50;88.60;;;;;;5096475;28;20416;-48
2022/11/28 03:32:06;;;;;;;;;;;20.50;88.70;;;;;;5097734;28;19908;-49
2022/11/28 03:34:34;;;;;;;;;;;20.50;88.80;;;;;;5097495;28;19991;-48
2022/11/28 03:37:20;;;;;;;;;;;20.50;88.70;;;;;;5097446;28;19927;-48
2022/11/28 03:39:49;;;;;;;;;;;20.60;88.70;;;;;;5095441;28;19962;-50
2022/11/28 03:42:21;;;;;;;;;;;20.60;88.70;;;;;;5079171;28;19915;-46
2022/11/28 03:44:51;;;;;;;;;;;20.60;88.70;;;;;;5097271;28;19912;-51
2022/11/28 03:47:16;;;;;;;;;;;20.60;88.70;;;;;;5095879;28;19908;-50
2022/11/28 03:49:46;;;;;;;;;;;20.60;88.80;;;;;;5097110;28;20025;-51
2022/11/28 03:52:15;;;;;;;;;;;20.60;88.70;;;;;;5096860;28;20022;-52
2022/11/28 03:54:45;;;;;;;;;;;20.60;88.70;;;;;;5097113;28;19904;-50
2022/11/28 03:57:24;;;;;;;;;;;20.60;88.80;;;;;;5095980;28;19908;-48
2022/11/28 03:59:51;;;;;;;;;;;20.60;88.80;;;;;;5096657;28;20408;-47
2022/11/28 04:02:31;;;;;;;;;;;20.60;88.80;;;;;;5097268;28;19912;-50
2022/11/28 04:05:01;;;;;;;;;;;20.60;88.80;;;;;;5096936;28;19988;-47
2022/11/28 04:07:26;;;;;;;;;;;20.60;88.70;;;;;;5095451;28;19947;-49
2022/11/28 04:10:06;;;;;;;;;;;20.60;88.90;;;;;;5096712;28;19947;-47
2022/11/28 04:12:36;;;;;;;;;;;20.60;88.80;;;;;;5078578;28;19916;-50
2022/11/28 04:15:08;;;;;;;;;;;20.60;88.70;;;;;;5094759;28;20227;-47
2022/11/28 04:17:41;;;;;;;;;;;20.60;88.60;;;;;;5083359;28;19912;-48
2022/11/28 04:20:12;;;;;;;;;;;20.60;88.40;;;;;;5096601;28;19915;-48
2022/11/28 04:22:50;;;;;;;;;;;20.60;88.50;;;;;;5078507;28;19904;-48
2022/11/28 04:25:18;;;;;;;;;;;20.60;88.60;;;;;;5095297;28;19904;-54
2022/11/28 04:27:46;;;;;;;;;;;20.60;88.60;;;;;;5095681;28;19915;-46
2022/11/28 04:30:12;;;;;;;;;;;20.60;88.50;;;;;;5095866;28;19940;-48
2022/11/28 04:32:41;;;;;;;;;;;20.60;88.50;;;;;;5096344;28;20048;-50
2022/11/28 04:35:11;;;;;;;;;;;20.60;88.50;;;;;;5096067;28;19908;-50
2022/11/28 04:37:37;;;;;;;;;;;20.60;88.50;;;;;;5076670;28;19961;-50
2022/11/28 04:40:05;;;;;;;;;;;20.60;88.60;;;;;;5095996;28;19908;-48
2022/11/28 04:42:43;;;;;;;;;;;20.60;88.70;;;;;;5096197;28;19904;-48
2022/11/28 04:45:16;;;;;;;;;;;20.60;88.70;;;;;;5095785;28;19911;-46
2022/11/28 04:47:43;;;;;;;;;;;20.60;88.70;;;;;;5095389;28;19903;-49
2022/11/28 04:50:09;;;;;;;;;;;20.60;88.80;;;;;;5095599;28;19912;-50
2022/11/28 04:52:34;;;;;;;;;;;20.60;88.70;;;;;;5095854;28;19934;-50
2022/11/28 04:55:04;;;;;;;;;;;20.60;88.80;;;;;;5096185;28;19904;-49
2022/11/28 04:57:38;;;;;;;;;;;20.60;88.90;;;;;;5095060;28;19904;-48
2022/11/28 05:00:05;;;;;;;;;;;20.60;88.90;;;;;;5095765;28;19915;-49
2022/11/28 05:02:32;;;;;;;;;;;20.60;88.70;;;;;;5095801;28;19950;-50
2022/11/28 05:04:58;;;;;;;;;;;20.60;88.80;;;;;;5077497;28;20259;-48
2022/11/28 05:07:24;;;;;;;;;;;20.60;88.90;;;;;;5095089;28;19904;-53
2022/11/28 05:09:49;;;;;;;;;;;20.60;88.80;;;;;;5095296;28;19918;-48
2022/11/28 05:12:15;;;;;;;;;;;20.60;88.90;;;;;;5095683;28;19923;-48
2022/11/28 05:14:40;;;;;;;;;;;20.60;88.90;;;;;;5095037;28;19950;-49
2022/11/28 05:17:06;;;;;;;;;;;20.60;88.80;;;;;;5076485;28;19904;-50
2022/11/28 05:19:32;;;;;;;;;;;20.60;88.60;;;;;;5094902;28;19915;-48
2022/11/28 05:21:57;;;;;;;;;;;20.60;88.60;;;;;;5095068;28;19965;-51
2022/11/28 05:24:23;;;;;;;;;;;20.60;88.60;;;;;;5095177;28;19950;-50
2022/11/28 05:26:49;;;;;;;;;;;20.60;88.50;;;;;;5092872;28;20023;-48
2022/11/28 05:29:14;;;;;;;;;;;20.60;88.50;;;;;;5094947;28;20460;-49
2022/11/28 05:31:39;;;;;;;;;;;20.60;88.60;;;;;;5095043;28;19925;-49
2022/11/28 05:34:05;;;;;;;;;;;20.60;88.70;;;;;;5095062;28;20311;-48
2022/11/28 05:36:30;;;;;;;;;;;20.60;88.60;;;;;;5094252;28;19908;-52
2022/11/28 05:38:56;;;;;;;;;;;20.60;88.20;;;;;;5095049;28;19904;-50
2022/11/28 05:41:22;;;;;;;;;;;20.70;88.30;;;;;;5094973;28;19904;-48
2022/11/28 05:43:48;;;;;;;;;;;20.70;88.30;;;;;;5076637;28;19904;-50
2022/11/28 05:46:14;;;;;;;;;;;20.70;88.30;;;;;;5094123;28;19918;-48
2022/11/28 05:48:40;;;;;;;;;;;20.60;88.30;;;;;;5094512;28;19904;-48
2022/11/28 05:51:05;;;;;;;;;;;20.70;88.40;;;;;;5094617;28;19912;-50
2022/11/28 05:53:31;;;;;;;;;;;20.70;88.40;;;;;;5094716;28;19904;-53
2022/11/28 05:55:57;;;;;;;;;;;20.70;88.30;;;;;;5093903;28;19908;-49
2022/11/28 05:58:22;;;;;;;;;;;20.60;88.40;;;;;;5076410;28;19908;-52
2022/11/28 06:00:48;;;;;;;;;;;20.60;88.40;;;;;;5094049;28;19904;-51
2022/11/28 06:03:13;;;;;;;;;;;20.60;88.50;;;;;;5094018;28;19908;-52
2022/11/28 06:05:40;;;;;;;;;;;20.70;88.40;;;;;;5094438;28;20232;-49
2022/11/28 06:08:05;;;;;;;;;;;20.70;88.30;;;;;;5093391;28;19916;-49
2022/11/28 06:10:31;;;;;;;;;;;20.60;88.60;;;;;;5094180;28;19916;-48
2022/11/28 06:12:56;;;;;;;;;;;20.60;88.50;;;;;;5094657;28;19911;-51
2022/11/28 06:15:22;;;;;;;;;;;20.60;88.40;;;;;;5075886;28;19908;-53
2022/11/28 06:17:47;;;;;;;;;;;20.60;88.40;;;;;;5093361;28;20010;-50
2022/11/28 06:20:13;;;;;;;;;;;20.60;88.40;;;;;;5094194;28;19930;-49
2022/11/28 06:22:38;;;;;;;;;;;20.60;88.30;;;;;;5094167;28;20353;-51
2022/11/28 06:25:04;;;;;;;;;;;20.60;89.10;;;;;;5091187;28;19924;-50
2022/11/28 06:27:29;;;;;;;;;;;20.60;89.40;;;;;;5096353;28;19908;-47
2022/11/28 06:29:55;;;;;;;;;;;20.60;89.50;;;;;;5106917;28;19918;-50
2022/11/28 06:32:20;;;;;;;;;;;20.60;89.30;;;;;;5076843;28;19978;-48
2022/11/28 06:34:46;;;;;;;;;;;20.60;88.90;;;;;;5104017;28;19910;-44
2022/11/28 06:37:11;;;;;;;;;;;20.70;89.20;;;;;;5094168;28;19912;-44
2022/11/28 06:39:37;;;;;;;;;;;20.80;87.50;;;;;;5099664;28;19911;-47
2022/11/28 06:42:02;;;;;;;;;;;20.60;82.80;;;;;;5100734;28;19949;-47
2022/11/28 06:44:27;;;;;;;;;;;20.50;83.00;;;;;;5088668;28;19908;-46
2022/11/28 06:46:54;;;;;;;;;;;20.60;85.60;;;;;;5098797;28;20377;-45
2022/11/28 06:49:19;;;;;;;;;;;20.60;87.00;;;;;;5103608;28;19980;-47
2022/11/28 06:51:45;;;;;;;;;;;20.60;87.40;;;;;;5109359;28;20292;-46
2022/11/28 06:54:10;;;;;;;;;;;20.70;87.70;;;;;;5120403;28;20461;-47
2022/11/28 06:56:36;;;;;;;;;;;20.70;87.70;;;;;;5086221;28;20367;-49
2022/11/28 06:59:01;;;;;;;;;;;20.70;87.80;;;;;;5087590;28;19912;-49
2022/11/28 07:01:28;;;;;;;;;;;20.70;87.80;;;;;;5097378;28;19918;-47
2022/11/28 07:03:54;;;;;;;;;;;20.70;87.90;;;;;;5103692;28;19912;-50
2022/11/28 07:06:20;;;;;;;;;;;20.80;87.80;;;;;;5097576;28;19918;-44
2022/11/28 07:08:46;;;;;;;;;;;20.80;87.70;;;;;;5084400;28;19935;-49
2022/11/28 07:11:19;;;;;;;;;;;20.90;88.00;;;;;;5095843;28;20378;-52
2022/11/28 07:13:45;;;;;;;;;;;20.80;87.80;;;;;;5105450;28;19950;-49
2022/11/28 07:16:14;;;;;;;;;;;20.90;87.90;;;;;;5105695;28;20335;-50
2022/11/28 07:18:40;;;;;;;;;;;20.80;87.90;;;;;;5100521;28;20398;-46
2022/11/28 07:21:06;;;;;;;;;;;20.80;88.00;;;;;;5100216;28;19951;-48
2022/11/28 07:23:31;;;;;;;;;;;20.80;88.00;;;;;;5106855;28;20362;-45
2022/11/28 07:25:58;;;;;;;;;;;20.80;88.00;;;;;;5120716;28;20010;-48
2022/11/28 07:28:24;;;;;;;;;;;20.90;87.90;;;;;;5109115;28;19912;-47
2022/11/28 07:30:57;;;;;;;;;;;20.90;88.00;;;;;;5093948;28;19940;-45
2022/11/28 07:33:22;;;;;;;;;;;20.90;87.90;;;;;;5088803;28;20266;-46
2022/11/28 07:35:48;;;;;;;;;;;20.90;88.00;;;;;;5120255;28;19912;-51
2022/11/28 07:38:13;;;;;;;;;;;20.90;88.60;;;;;;5102388;28;20455;-47
2022/11/28 07:40:39;;;;;;;;;;;20.90;88.10;;;;;;5100103;28;20017;-49
2022/11/28 07:43:04;;;;;;;;;;;20.80;88.20;;;;;;5098440;28;19913;-45
2022/11/28 07:45:29;;;;;;;;;;;20.80;88.30;;;;;;5099941;28;20323;-47
2022/11/28 07:47:55;;;;;;;;;;;20.80;88.30;;;;;;5116223;28;19908;-49
2022/11/28 07:50:20;;;;;;;;;;;20.80;88.50;;;;;;5118406;28;19915;-51
2022/11/28 07:52:48;;;;;;;;;;;20.80;88.70;;;;;;5112683;28;20320;-51
2022/11/28 07:55:14;;;;;;;;;;;20.80;88.70;;;;;;5096656;28;19912;-48
2022/11/28 07:57:39;;;;;;;;;;;20.80;88.70;;;;;;5078934;28;20314;-45
2022/11/28 08:00:05;;;;;;;;;;;20.80;88.60;;;;;;5096621;28;20370;-46
2022/11/28 08:02:31;;;;;;;;;;;20.80;88.80;;;;;;5096476;28;19931;-47
2022/11/28 08:04:57;;;;;;;;;;;20.80;88.80;;;;;;5096348;28;20381;-47
2022/11/28 08:07:23;;;;;;;;;;;20.80;88.90;;;;;;5111921;28;20007;-48
2022/11/28 08:09:48;;;;;;;;;;;20.70;88.90;;;;;;5116962;28;19919;-47
2022/11/28 08:12:14;;;;;;;;;;;20.70;88.90;;;;;;5099748;28;19924;-46
2022/11/28 08:14:39;;;;;;;;;;;20.70;89.00;;;;;;5076640;28;19999;-48
2022/11/28 08:17:05;;;;;;;;;;;20.70;88.90;;;;;;5093932;28;19912;-50
2022/11/28 08:19:30;;;;;;;;;;;20.70;88.90;;;;;;5096060;28;19912;-49
2022/11/28 08:21:56;;;;;;;;;;;20.70;89.00;;;;;;5095179;28;19920;-49
2022/11/28 08:24:21;;;;;;;;;;;20.70;89.00;;;;;;5096239;28;19931;-47
2022/11/28 08:26:46;;;;;;;;;;;20.70;89.00;;;;;;5115168;28;19943;-44
2022/11/28 08:29:12;;;;;;;;;;;20.70;89.10;;;;;;5098936;28;19915;-45
2022/11/28 08:31:38;;;;;;;;;;;20.70;89.20;;;;;;5094607;28;20426;-48
2022/11/28 08:34:05;;;;;;;;;;;20.70;89.20;;;;;;5102915;28;19908;-52
2022/11/28 08:36:31;;;;;;;;;;;20.70;89.20;;;;;;5116551;28;20002;-51
2022/11/28 08:38:59;;;;;;;;;;;20.70;89.10;;;;;;5116360;28;20362;-49
2022/11/28 08:41:25;;;;;;;;;;;20.70;89.60;;;;;;5112382;28;19917;-54
2022/11/28 08:43:50;;;;;;;;;;;20.70;89.00;;;;;;5114099;28;19912;-46
2022/11/28 08:46:19;;;;;;;;;;;20.80;88.90;;;;;;5097903;28;19955;-46
2022/11/28 08:48:45;;;;;;;;;;;20.80;88.90;;;;;;5095804;28;19916;-46
2022/11/28 08:51:13;;;;;;;;;;;20.80;89.00;;;;;;5095800;28;19970;-51
2022/11/28 08:53:38;;;;;;;;;;;20.80;89.00;;;;;;5098681;28;19912;-49
2022/11/28 08:56:04;;;;;;;;;;;20.80;89.00;;;;;;5095454;28;19964;-51
2022/11/28 08:58:30;;;;;;;;;;;20.80;89.00;;;;;;5095498;28;20381;-55
2022/11/28 09:00:55;;;;;;;;;;;20.80;88.90;;;;;;5115531;28;19916;-49
2022/11/28 09:03:21;;;;;;;;;;;20.90;88.90;;;;;;5096943;28;19919;-47
2022/11/28 09:05:46;;;;;;;;;;;20.80;88.90;;;;;;5077174;28;19916;-52
2022/11/28 09:08:16;;;;;;;;;;;20.90;89.00;;;;;;5114205;28;20300;-49
2022/11/28 09:10:42;;;;;;;;;;;20.90;89.00;;;;;;5115200;28;20327;-47
2022/11/28 09:13:08;;;;;;;;;;;20.90;89.10;;;;;;5102356;28;19919;-48
2022/11/28 09:15:38;;;;;;;;;;;20.90;89.00;;;;;;5094984;28;19916;-48
2022/11/28 09:18:03;;;;;;;;;;;20.90;89.10;;;;;;5075706;28;19977;-51
2022/11/28 09:20:29;;;;;;;;;;;20.90;89.00;;;;;;5110081;28;20357;-50
2022/11/28 09:22:54;;;;;;;;;;;20.90;89.00;;;;;;5112009;28;19971;-51
2022/11/28 09:25:19;;;;;;;;;;;20.90;89.00;;;;;;5106758;28;20008;-46
2022/11/28 09:27:45;;;;;;;;;;;20.90;89.00;;;;;;5115086;28;19907;-46
2022/11/28 09:30:11;;;;;;;;;;;20.90;89.20;;;;;;5115199;28;20370;-48
2022/11/28 09:32:36;;;;;;;;;;;20.90;89.10;;;;;;5111710;28;19969;-44
2022/11/28 09:35:02;;;;;;;;;;;20.90;89.10;;;;;;5109263;28;19956;-47
2022/11/28 09:37:28;;;;;;;;;;;20.90;89.20;;;;;;5095570;28;19977;-46
2022/11/28 09:39:53;;;;;;;;;;;20.80;89.10;;;;;;5106863;28;19916;-44
2022/11/28 09:42:37;;;;;;;;;;;20.80;89.20;;;;;;5097032;28;20369;-46
2022/11/28 09:45:03;;;;;;;;;;;20.80;89.30;;;;;;5104393;28;20278;-47
2022/11/28 09:47:30;;;;;;;;;;;20.80;89.30;;;;;;5114727;28;19908;-44
2022/11/28 09:49:58;;;;;;;;;;;20.80;89.30;;;;;;5115156;28;19912;-46
2022/11/28 09:52:27;;;;;;;;;;;20.90;89.30;;;;;;5091407;28;19916;-45
2022/11/28 09:55:02;;;;;;;;;;;20.90;89.20;;;;;;5093035;28;19912;-49
2022/11/28 09:57:32;;;;;;;;;;;20.90;89.20;;;;;;5094390;28;19951;-50
2022/11/28 09:59:57;;;;;;;;;;;20.90;89.20;;;;;;5094339;28;19960;-50
2022/11/28 10:02:27;;;;;;;;;;;20.90;89.20;;;;;;5111682;28;19994;-48
2022/11/28 10:05:00;;;;;;;;;;;20.90;89.10;;;;;;5107698;28;19920;-50
2022/11/28 10:07:39;;;;;;;;;;;20.90;89.20;;;;;;5107531;28;19912;-51
2022/11/28 10:10:11;;;;;;;;;;;20.90;89.30;;;;;;5106266;28;20371;-51
2022/11/28 10:12:39;;;;;;;;;;;20.90;89.30;;;;;;5092049;28;19916;-51
2022/11/28 10:15:10;;;;;;;;;;;20.90;89.30;;;;;;5098197;28;19920;-49
2022/11/28 10:17:41;;;;;;;;;;;20.90;89.30;;;;;;5093518;28;20320;-49
2022/11/28 10:20:16;;;;;;;;;;;20.90;89.20;;;;;;5104934;28;19957;-47
2022/11/28 10:22:49;;;;;;;;;;;20.90;89.10;;;;;;5107783;28;19920;-46
2022/11/28 10:25:20;;;;;;;;;;;20.90;88.90;;;;;;5111604;28;19922;-46
2022/11/28 10:27:46;;;;;;;;;;;21.00;89.10;;;;;;5112079;28;20334;-44
2022/11/28 10:30:21;;;;;;;;;;;21.00;89.00;;;;;;5104466;28;20317;-47
2022/11/28 10:32:56;;;;;;;;;;;21.00;88.80;;;;;;5105929;28;19923;-45
2022/11/28 10:35:40;;;;;;;;;;;21.00;89.00;;;;;;5093382;28;19957;-44
2022/11/28 10:38:10;;;;;;;;;;;21.00;88.90;;;;;;5097541;28;19991;-47
2022/11/28 10:40:41;;;;;;;;;;;21.00;88.80;;;;;;5093105;28;20274;-44
2022/11/28 10:43:22;;;;;;;;;;;21.00;88.80;;;;;;5093065;28;19908;-47
2022/11/28 10:45:48;;;;;;;;;;;21.00;88.70;;;;;;5092172;28;19912;-48
2022/11/28 10:48:21;;;;;;;;;;;21.10;88.70;;;;;;5093677;28;19954;-48
2022/11/28 10:50:49;;;;;;;;;;;21.10;88.70;;;;;;5092687;28;19915;-45
2022/11/28 10:53:33;;;;;;;;;;;21.10;88.70;;;;;;5093715;28;19936;-49
2022/11/28 10:56:09;;;;;;;;;;;21.10;88.70;;;;;;5073280;28;19916;-46
2022/11/28 10:58:40;;;;;;;;;;;21.00;88.80;;;;;;5091589;28;20385;-51
2022/11/28 11:01:05;;;;;;;;;;;21.10;88.80;;;;;;5096783;28;20018;-48
2022/11/28 11:03:32;;;;;;;;;;;21.10;88.80;;;;;;5096441;28;20316;-47
2022/11/28 11:05:58;;;;;;;;;;;21.10;88.70;;;;;;5103691;28;19946;-46
2022/11/28 11:08:25;;;;;;;;;;;21.10;88.90;;;;;;5111414;28;19916;-47
2022/11/28 11:10:56;;;;;;;;;;;21.10;89.00;;;;;;5100089;28;19956;-48
2022/11/28 11:13:25;;;;;;;;;;;21.10;89.10;;;;;;5090671;28;20023;-48
2022/11/28 11:16:05;;;;;;;;;;;21.10;89.10;;;;;;5090549;28;19912;-46
2022/11/28 11:18:33;;;;;;;;;;;21.10;89.10;;;;;;5091001;28;20434;-48
2022/11/28 11:21:07;;;;;;;;;;;21.00;89.20;;;;;;5092126;28;19912;-52
2022/11/28 11:23:33;;;;;;;;;;;21.10;89.20;;;;;;5083684;28;20351;-57
2022/11/28 11:25:59;;;;;;;;;;;21.00;89.10;;;;;;5093467;28;19998;-50
2022/11/28 11:28:26;;;;;;;;;;;21.00;89.10;;;;;;5096560;28;19989;-54
2022/11/28 11:30:59;;;;;;;;;;;21.00;89.60;;;;;;5097759;28;19973;-48
2022/11/28 11:33:29;;;;;;;;;;;21.00;89.20;;;;;;5117463;28;19916;-50
2022/11/28 11:35:54;;;;;;;;;;;21.00;89.20;;;;;;5093676;28;19942;-50
2022/11/28 11:38:19;;;;;;;;;;;21.10;89.10;;;;;;5103100;28;19912;-47
2022/11/28 11:40:46;;;;;;;;;;;21.10;89.00;;;;;;5095315;28;19946;-48
2022/11/28 11:43:30;;;;;;;;;;;21.10;89.10;;;;;;5096181;28;19912;-49
2022/11/28 11:46:07;;;;;;;;;;;21.10;88.90;;;;;;5095508;28;19912;-45
2022/11/28 11:48:43;;;;;;;;;;;21.10;88.90;;;;;;5096100;28;19920;-46
2022/11/28 11:51:20;;;;;;;;;;;21.10;88.90;;;;;;5095424;28;20019;-47
2022/11/28 11:53:46;;;;;;;;;;;21.20;88.90;;;;;;5076870;28;19917;-51
2022/11/28 11:56:12;;;;;;;;;;;21.20;88.90;;;;;;5094160;28;20011;-51
2022/11/28 11:58:43;;;;;;;;;;;21.20;88.90;;;;;;5117639;28;19914;-50
2022/11/28 12:01:09;;;;;;;;;;;21.20;88.80;;;;;;5112207;28;19956;-52
2022/11/28 12:03:38;;;;;;;;;;;21.20;88.90;;;;;;5114491;28;19957;-49
2022/11/28 12:06:10;;;;;;;;;;;21.20;88.80;;;;;;5104101;28;19912;-49
2022/11/28 12:08:35;;;;;;;;;;;21.20;88.90;;;;;;5095521;28;20309;-48
2022/11/28 12:11:07;;;;;;;;;;;21.20;88.80;;;;;;5096476;28;19920;-51
2022/11/28 12:13:32;;;;;;;;;;;21.20;88.80;;;;;;5101202;28;20347;-47
2022/11/28 12:16:07;;;;;;;;;;;21.20;88.80;;;;;;5095602;28;19918;-49
2022/11/28 12:18:56;;;;;;;;;;;21.20;89.00;;;;;;5092422;28;19919;-47
2022/11/28 12:21:32;;;;;;;;;;;21.20;88.90;;;;;;5076007;28;20371;-46
2022/11/28 12:24:07;;;;;;;;;;;21.20;88.90;;;;;;5084567;28;19912;-43
2022/11/28 12:26:39;;;;;;;;;;;21.20;88.90;;;;;;5096001;28;19912;-43
2022/11/28 12:29:23;;;;;;;;;;;21.20;88.90;;;;;;5093937;28;19947;-45
2022/11/28 12:31:58;;;;;;;;;;;21.20;88.80;;;;;;5097543;28;19949;-44
2022/11/28 12:34:34;;;;;;;;;;;21.10;88.80;;;;;;5094389;28;19922;-48
2022/11/28 12:37:12;;;;;;;;;;;21.20;88.80;;;;;;5107687;28;19916;-46
2022/11/28 12:39:49;;;;;;;;;;;21.20;88.70;;;;;;5093988;28;19962;-46
2022/11/28 12:42:14;;;;;;;;;;;21.20;88.70;;;;;;5094791;28;19912;-44
2022/11/28 12:44:43;;;;;;;;;;;21.20;88.70;;;;;;5092073;28;20049;-47
2022/11/28 12:47:15;;;;;;;;;;;21.20;88.60;;;;;;5104251;28;20277;-47
2022/11/28 12:49:53;;;;;;;;;;;21.20;88.60;;;;;;5076069;28;19978;-52
2022/11/28 12:52:19;;;;;;;;;;;21.20;88.60;;;;;;5075269;28;19916;-48
2022/11/28 12:55:05;;;;;;;;;;;21.20;88.50;;;;;;5075843;28;19989;-50
2022/11/28 12:57:33;;;;;;;;;;;21.30;88.60;;;;;;5092234;28;19912;-52
2022/11/28 13:00:02;;;;;;;;;;;21.30;88.60;;;;;;5093012;28;19908;-51
2022/11/28 13:02:41;;;;;;;;;;;21.30;88.60;;;;;;5091929;28;19920;-51
2022/11/28 13:05:06;;;;;;;;;;;21.30;88.60;;;;;;5089414;28;19919;-47
2022/11/28 13:07:32;;;;;;;;;;;21.30;88.50;;;;;;5097220;28;19907;-47
2022/11/28 13:10:18;;;;;;;;;;;21.30;88.50;;;;;;5075599;28;19916;-49
2022/11/28 13:12:44;;;;;;;;;;;21.30;88.60;;;;;;5095279;28;20399;-49
2022/11/28 13:15:14;;;;;;;;;;;21.30;89.10;;;;;;5112333;28;19916;-46
2022/11/28 13:17:49;;;;;;;;;;;21.30;88.70;;;;;;5115684;28;19908;-54
2022/11/28 13:20:27;;;;;;;;;;;21.30;88.70;;;;;;5075393;28;19916;-50
2022/11/28 13:23:06;;;;;;;;;;;21.30;88.70;;;;;;5095193;28;19915;-48
2022/11/28 13:25:31;;;;;;;;;;;21.30;88.80;;;;;;5112184;28;19951;-48
2022/11/28 13:28:16;;;;;;;;;;;21.30;88.80;;;;;;5098375;28;19912;-48
2022/11/28 13:30:44;;;;;;;;;;;21.30;88.80;;;;;;5095685;28;19923;-49
2022/11/28 13:33:12;;;;;;;;;;;21.30;88.80;;;;;;5115181;28;20393;-44
2022/11/28 13:35:39;;;;;;;;;;;21.30;88.90;;;;;;5109533;28;20002;-48
2022/11/28 13:38:17;;;;;;;;;;;21.30;88.80;;;;;;5093809;28;19969;-50
2022/11/28 13:41:05;;;;;;;;;;;21.20;89.20;;;;;;5093758;28;19912;-49
2022/11/28 13:43:39;;;;;;;;;;;21.30;89.20;;;;;;5114966;28;19908;-50
2022/11/28 13:46:08;;;;;;;;;;;21.30;89.10;;;;;;5115227;28;19912;-49
2022/11/28 13:48:33;;;;;;;;;;;21.30;89.10;;;;;;5114972;28;19908;-53
2022/11/28 13:50:59;;;;;;;;;;;21.20;89.10;;;;;;5100015;28;19916;-48
2022/11/28 13:53:24;;;;;;;;;;;21.20;89.10;;;;;;5094254;28;20282;-46
2022/11/28 13:55:51;;;;;;;;;;;21.20;89.20;;;;;;5076037;28;20354;-45
2022/11/28 13:58:20;;;;;;;;;;;21.20;89.20;;;;;;5089232;28;19912;-50
2022/11/28 14:00:59;;;;;;;;;;;21.20;89.20;;;;;;5109371;28;19911;-47
2022/11/28 14:03:25;;;;;;;;;;;21.20;89.20;;;;;;5104828;28;19916;-51
2022/11/28 14:05:55;;;;;;;;;;;21.30;89.10;;;;;;5114575;28;19995;-47
2022/11/28 14:08:26;;;;;;;;;;;21.30;89.20;;;;;;5103196;28;19908;-45
2022/11/28 14:10:58;;;;;;;;;;;21.30;89.10;;;;;;5094026;28;20370;-47
2022/11/28 14:13:26;;;;;;;;;;;21.30;89.10;;;;;;5093885;28;19912;-49
2022/11/28 14:16:01;;;;;;;;;;;21.30;89.10;;;;;;5105107;28;19922;-48
2022/11/28 14:18:45;;;;;;;;;;;21.30;89.10;;;;;;5110010;28;19911;-45
2022/11/28 14:21:19;;;;;;;;;;;21.30;89.10;;;;;;5102443;28;20003;-46
2022/11/28 14:24:01;;;;;;;;;;;21.30;89.00;;;;;;5100068;28;19978;-46
2022/11/28 14:26:34;;;;;;;;;;;21.30;88.90;;;;;;5085731;28;20003;-47